Time;durP1;ratioP1;P1;durP2;ratioP2;P2;SDS_P1;SDS_P2;PMS_P1;PMS_P2;Temp;Humidity;BMP_temperature;BMP_pressure;BME280_temperature;BME280_humidity;BME280_pressure;Samples;Min_cycle;Max_cycle;Signal;HPM_P1;HPM_P2
2022/03/18 00:00:20;;;;;;;6.60;6.05;;;;;;;2.45;68.80;96441.53;5114636;28;20192;-59
2022/03/18 00:02:48;;;;;;;5.65;5.15;;;;;;;2.48;68.81;96444.53;5080494;28;20192;-59
2022/03/18 00:05:15;;;;;;;5.45;5.05;;;;;;;2.62;68.25;96450.28;5114006;28;20630;-59
2022/03/18 00:07:42;;;;;;;5.78;5.38;;;;;;;2.72;67.74;96446.75;5098132;28;20199;-59
2022/03/18 00:10:10;;;;;;;5.65;5.20;;;;;;;2.75;67.56;96448.94;5098167;28;20200;-59
2022/03/18 00:12:37;;;;;;;5.95;5.55;;;;;;;2.65;67.47;96456.03;5098103;28;20212;-58
2022/03/18 00:15:10;;;;;;;6.47;5.97;;;;;;;2.52;67.16;96456.53;5098025;28;20303;-59
2022/03/18 00:17:37;;;;;;;7.20;6.57;;;;;;;2.46;67.79;96448.59;5097707;28;20191;-59
2022/03/18 00:20:04;;;;;;;7.47;6.88;;;;;;;2.38;67.99;96455.38;5080260;28;20197;-59
2022/03/18 00:22:31;;;;;;;7.38;6.80;;;;;;;2.32;67.56;96457.25;5097516;28;20191;-59
2022/03/18 00:24:58;;;;;;;8.02;7.38;;;;;;;2.15;68.34;96462.91;5080120;28;20253;-59
2022/03/18 00:27:26;;;;;;;8.07;7.38;;;;;;;2.09;68.40;96469.41;5097962;28;20185;-59
2022/03/18 00:29:54;;;;;;;8.32;7.63;;;;;;;1.89;69.58;96469.31;5079976;28;20228;-60
2022/03/18 00:32:22;;;;;;;7.63;7.03;;;;;;;1.99;69.11;96463.91;5097688;28;20489;-60
2022/03/18 00:34:49;;;;;;;7.50;6.90;;;;;;;1.86;69.82;96467.13;5097709;28;20208;-60
2022/03/18 00:37:16;;;;;;;7.53;7.00;;;;;;;1.85;70.13;96477.19;5097799;28;20188;-60
2022/03/18 00:39:43;;;;;;;7.95;7.30;;;;;;;1.97;70.12;96462.56;5079824;28;20293;-60
2022/03/18 00:42:11;;;;;;;8.30;7.65;;;;;;;2.14;69.06;96465.88;5097320;28;20181;-59
2022/03/18 00:44:38;;;;;;;8.57;7.97;;;;;;;2.04;68.88;96474.03;5097508;28;20245;-59
2022/03/18 00:51:59;;;;;;;8.88;8.07;;;;;;;1.93;68.99;96465.81;5079652;28;20208;-59
2022/03/18 00:52:39;;;;;;;8.82;8.13;;;;;;;1.85;69.66;96476.34;5112931;28;20215;-59
2022/03/18 00:55:06;;;;;;;9.25;8.52;;;;;;;1.84;69.34;96486.41;5113548;28;20248;-59
2022/03/18 00:57:33;;;;;;;9.80;8.90;;;;;;;1.92;69.63;96483.22;5096955;28;20189;-59
2022/03/18 01:00:00;;;;;;;9.18;8.40;;;;;;;1.95;69.44;96481.03;5113645;28;20210;-59
2022/03/18 01:02:27;;;;;;;9.65;8.85;;;;;;;1.98;69.01;96485.97;5113229;28;20189;-59
2022/03/18 01:04:55;;;;;;;9.57;8.77;;;;;;;2.02;69.03;96496.03;5079355;28;20619;-59
2022/03/18 01:07:22;;;;;;;10.43;9.57;;;;;;;2.08;68.49;96494.19;5097092;28;20192;-59
2022/03/18 01:09:48;;;;;;;11.30;10.40;;;;;;;1.91;67.88;96494.34;5078890;28;20218;-59
2022/03/18 01:12:15;;;;;;;10.20;9.40;;;;;;;1.69;68.94;96489.03;5096612;28;20196;-59
2022/03/18 01:14:42;;;;;;;10.35;9.52;;;;;;;1.60;68.97;96486.00;5112671;28;20647;-59
2022/03/18 01:17:09;;;;;;;10.07;9.27;;;;;;;1.72;69.15;96490.44;5096738;28;20208;-59
2022/03/18 01:19:36;;;;;;;9.73;8.95;;;;;;;1.82;68.90;96493.22;5096166;28;20211;-59
2022/03/18 01:22:04;;;;;;;9.82;9.02;;;;;;;2.00;68.56;96502.81;5112449;28;20202;-59
2022/03/18 01:24:31;;;;;;;10.48;9.57;;;;;;;1.89;67.98;96491.91;5078575;28;20200;-60
2022/03/18 01:26:58;;;;;;;9.63;8.77;;;;;;;1.93;68.80;96490.28;5078734;28;20207;-60
2022/03/18 01:29:25;;;;;;;10.35;9.45;;;;;;;1.78;68.91;96492.09;5078552;28;20192;-60
2022/03/18 01:31:52;;;;;;;9.07;8.38;;;;;;;1.82;68.95;96491.31;5095999;28;20607;-59
2022/03/18 01:34:18;;;;;;;9.65;8.85;;;;;;;1.89;68.25;96497.34;5095680;28;20659;-60
2022/03/18 01:36:45;;;;;;;10.25;9.45;;;;;;;1.81;67.67;96491.56;5096187;28;20195;-60
2022/03/18 01:39:13;;;;;;;10.02;9.02;;;;;;;1.91;67.63;96495.16;5078112;28;20192;-59
2022/03/18 01:41:40;;;;;;;9.38;8.63;;;;;;;1.82;67.02;96488.59;5095992;28;20188;-59
2022/03/18 01:44:10;;;;;;;9.27;8.57;;;;;;;1.81;66.23;96492.38;5111980;28;20192;-59
2022/03/18 01:46:38;;;;;;;9.32;8.63;;;;;;;1.92;66.04;96498.69;5095973;28;20261;-59
2022/03/18 01:49:04;;;;;;;9.52;8.73;;;;;;;1.92;65.94;96502.28;5078066;28;20196;-59
2022/03/18 01:51:31;;;;;;;9.00;8.30;;;;;;;1.97;65.22;96481.59;5074122;28;20244;-60
2022/03/18 01:56:41;;;;;;;8.45;7.85;;;;;;;1.59;66.21;96497.94;5074823;28;20212;-59
2022/03/18 01:59:08;;;;;;;9.25;8.50;;;;;;;1.51;66.12;96490.28;5075337;28;20193;-59
2022/03/18 02:01:36;;;;;;;9.45;8.65;;;;;;;1.44;65.79;96504.09;5075101;28;20213;-59
2022/03/18 02:04:03;;;;;;;9.40;8.68;;;;;;;1.51;65.46;96511.22;5074463;28;20201;-59
2022/03/18 02:06:30;;;;;;;9.77;8.98;;;;;;;1.57;64.63;96510.19;5075273;28;20197;-59
2022/03/18 02:08:57;;;;;;;9.88;9.07;;;;;;;1.57;64.67;96510.19;5074814;28;20203;-59
2022/03/18 02:11:25;;;;;;;9.75;8.95;;;;;;;1.58;63.57;96504.47;5074526;28;20200;-59
2022/03/18 02:13:57;;;;;;;9.45;8.75;;;;;;;1.51;63.77;96505.78;5074239;28;20211;-59
2022/03/18 02:16:24;;;;;;;8.82;8.13;;;;;;;1.40;63.60;96496.72;5074643;28;20632;-61
2022/03/18 02:18:51;;;;;;;9.20;8.40;;;;;;;1.29;63.61;96503.97;5075251;28;20200;-62
2022/03/18 02:21:18;;;;;;;9.48;8.68;;;;;;;1.24;64.21;96503.13;5074015;28;20193;-60
2022/03/18 02:23:46;;;;;;;9.18;8.48;;;;;;;1.33;64.43;96507.81;5075084;28;20185;-62
2022/03/18 02:26:15;;;;;;;9.45;8.65;;;;;;;1.46;63.98;96503.84;5074888;28;20181;-62
2022/03/18 02:28:42;;;;;;;8.48;7.78;;;;;;;1.49;64.54;96502.47;5073979;28;20204;-62
2022/03/18 02:31:09;;;;;;;9.30;8.50;;;;;;;1.37;64.40;96503.50;5074934;28;20268;-62
2022/03/18 02:33:36;;;;;;;8.82;8.15;;;;;;;1.38;65.27;96507.88;5073665;28;20300;-62
2022/03/18 02:36:03;;;;;;;9.18;8.35;;;;;;;1.47;65.28;96508.19;5074085;28;20637;-62
2022/03/18 02:38:29;;;;;;;9.55;8.70;;;;;;;1.51;65.53;96512.03;5074314;28;20502;-62
2022/03/18 02:40:58;;;;;;;8.73;8.02;;;;;;;1.54;65.89;96510.69;5075228;28;20525;-61
2022/03/18 02:43:24;;;;;;;9.20;8.50;;;;;;;1.52;66.32;96518.28;5074449;28;20197;-61
2022/03/18 02:45:51;;;;;;;9.13;8.35;;;;;;;1.51;66.63;96519.38;5074626;28;20211;-61
2022/03/18 02:48:18;;;;;;;9.25;8.50;;;;;;;1.45;67.56;96529.38;5075002;28;20197;-61
2022/03/18 02:50:45;;;;;;;9.27;8.57;;;;;;;1.41;67.89;96525.53;5073670;28;20236;-60
2022/03/18 02:53:11;;;;;;;9.23;8.52;;;;;;;1.46;67.56;96535.66;5075122;28;20181;-62
2022/03/18 02:55:38;;;;;;;8.68;7.97;;;;;;;1.50;67.43;96542.22;5074206;28;20213;-61
2022/03/18 02:58:06;;;;;;;8.98;8.35;;;;;;;1.49;67.63;96538.69;5075120;28;20207;-61
2022/03/18 03:00:33;;;;;;;8.23;7.53;;;;;;;1.53;67.71;96533.53;5074724;28;20196;-61
2022/03/18 03:03:00;;;;;;;9.20;8.50;;;;;;;1.58;67.40;96544.44;5074085;28;20197;-61
2022/03/18 03:08:12;;;;;;;8.13;7.55;;;;;;;1.38;68.43;96547.81;5107943;28;20312;-61
2022/03/18 03:10:39;;;;;;;7.90;7.30;;;;;;;1.38;68.19;96547.81;5074931;28;20189;-61
2022/03/18 03:13:10;;;;;;;7.40;6.90;;;;;;;1.27;68.25;96556.94;5074922;28;20188;-61
2022/03/18 03:15:37;;;;;;;7.30;6.80;;;;;;;1.13;68.78;96542.97;5074849;28;20212;-59
2022/03/18 03:18:05;;;;;;;7.85;7.28;;;;;;;0.93;69.54;96549.81;5073687;28;20609;-61
2022/03/18 03:20:32;;;;;;;8.95;8.27;;;;;;;0.89;69.86;96554.13;5074851;28;20395;-61
2022/03/18 03:22:59;;;;;;;8.30;7.75;;;;;;;0.87;69.16;96555.44;5074814;28;20192;-62
2022/03/18 03:25:25;;;;;;;10.18;9.38;;;;;;;1.01;69.20;96555.88;5074529;28;20184;-62
2022/03/18 03:27:52;;;;;;;8.73;8.02;;;;;;;1.10;68.61;96568.75;5074925;28;20196;-62
2022/03/18 03:30:22;;;;;;;9.48;8.77;;;;;;;1.10;68.36;96568.75;5073853;28;20209;-62
2022/03/18 03:32:49;;;;;;;9.48;8.77;;;;;;;1.20;68.18;96573.50;5075928;28;20193;-61
2022/03/18 03:35:16;;;;;;;8.68;7.97;;;;;;;1.24;67.31;96571.91;5077342;28;20213;-61
2022/03/18 03:37:43;;;;;;;8.10;7.50;;;;;;;1.18;66.67;96576.44;5078509;28;20601;-62
2022/03/18 03:40:13;;;;;;;7.82;7.22;;;;;;;1.08;67.26;96575.53;5078160;28;20635;-61
2022/03/18 03:42:41;;;;;;;10.02;9.23;;;;;;;0.86;67.67;96581.81;5078460;28;20216;-63
2022/03/18 03:45:09;;;;;;;10.20;9.40;;;;;;;0.88;68.18;96581.56;5077858;28;20609;-62
2022/03/18 03:47:37;;;;;;;9.85;9.05;;;;;;;0.90;68.22;96588.38;5077429;28;20254;-62
2022/03/18 03:50:05;;;;;;;9.25;8.55;;;;;;;0.96;68.35;96589.25;5085543;28;20239;-61
2022/03/18 03:52:32;;;;;;;9.00;8.30;;;;;;;1.03;68.12;96589.06;5098397;28;20229;-62
2022/03/18 03:54:59;;;;;;;9.25;8.65;;;;;;;1.13;67.95;96594.63;5098492;28;20616;-61
2022/03/18 03:57:26;;;;;;;9.98;9.18;;;;;;;1.12;68.16;96596.47;5098413;28;20212;-61
2022/03/18 03:59:52;;;;;;;10.10;9.30;;;;;;;1.13;68.32;96594.63;5098426;28;20188;-62
2022/03/18 04:02:20;;;;;;;10.80;9.90;;;;;;;0.96;68.41;96600.94;5080193;28;20192;-61
2022/03/18 04:04:48;;;;;;;11.95;10.85;;;;;;;1.04;68.42;96605.09;5080370;28;20188;-61
2022/03/18 04:07:15;;;;;;;10.68;9.77;;;;;;;1.11;68.05;96600.28;5080816;28;20200;-61
2022/03/18 04:09:42;;;;;;;10.90;10.00;;;;;;;1.20;68.04;96598.75;5098289;28;20257;-61
2022/03/18 04:12:09;;;;;;;10.10;9.25;;;;;;;1.25;67.09;96608.88;5114355;28;20208;-60
2022/03/18 04:14:36;;;;;;;8.35;7.75;;;;;;;1.01;67.57;96602.88;5098112;28;20212;-61
2022/03/18 04:17:03;;;;;;;7.88;7.35;;;;;;;0.84;67.38;96613.03;5097817;28;20188;-61
2022/03/18 04:19:30;;;;;;;9.13;8.43;;;;;;;0.96;67.84;96614.53;5080519;28;20224;-61
2022/03/18 04:21:59;;;;;;;8.40;7.80;;;;;;;1.13;67.32;96614.44;5080293;28;20214;-61
2022/03/18 04:24:25;;;;;;;8.43;7.82;;;;;;;1.01;67.07;96615.66;5113569;28;20202;-61
2022/03/18 04:26:52;;;;;;;8.27;7.68;;;;;;;0.94;66.72;96621.28;5097790;28;20181;-62
2022/03/18 04:29:19;;;;;;;7.80;7.30;;;;;;;0.94;67.06;96622.13;5098055;28;20195;-60
2022/03/18 04:31:46;;;;;;;7.57;7.07;;;;;;;0.93;66.50;96630.50;5097508;28;20222;-62
2022/03/18 04:34:13;;;;;;;7.68;7.15;;;;;;;0.82;67.21;96626.03;5080105;28;20588;-62
2022/03/18 04:36:40;;;;;;;8.13;7.53;;;;;;;0.78;67.91;96617.56;5113734;28;20244;-62
2022/03/18 04:39:08;;;;;;;8.27;7.68;;;;;;;0.69;67.86;96617.19;5114207;28;20208;-61
2022/03/18 04:41:35;;;;;;;8.13;7.38;;;;;;;0.87;67.41;96621.50;5079956;28;20196;-62
2022/03/18 04:44:02;;;;;;;8.00;7.40;;;;;;;0.88;67.10;96622.31;5079662;28;20527;-62
2022/03/18 04:46:31;;;;;;;7.88;7.18;;;;;;;0.88;66.28;96623.13;5097095;28;20703;-62
2022/03/18 04:48:58;;;;;;;8.00;7.40;;;;;;;1.00;66.41;96630.31;5097477;28;20181;-62
2022/03/18 04:51:24;;;;;;;8.27;7.57;;;;;;;1.06;65.34;96634.75;5096747;28;20244;-62
2022/03/18 04:53:51;;;;;;;7.18;6.68;;;;;;;1.08;65.53;96640.72;5097430;28;20246;-62
2022/03/18 04:59:04;;;;;;;7.85;7.20;;;;;;;0.97;65.93;96639.78;5097148;28;20192;-61
2022/03/18 05:01:31;;;;;;;9.07;8.38;;;;;;;1.00;65.61;96646.63;5079665;28;20231;-64
2022/03/18 05:03:58;;;;;;;8.70;7.90;;;;;;;0.96;65.79;96635.44;5096624;28;20445;-64
2022/03/18 05:06:25;;;;;;;8.25;7.47;;;;;;;1.16;65.28;96651.16;5096107;28;20446;-60
2022/03/18 05:08:52;;;;;;;8.02;7.18;;;;;;;1.35;66.12;96652.47;5096838;28;20604;-61
2022/03/18 05:11:20;;;;;;;7.95;7.22;;;;;;;1.56;64.89;96652.66;5097078;28;20185;-61
2022/03/18 05:13:47;;;;;;;7.10;6.60;;;;;;;1.66;64.16;96656.28;5096662;28;20196;-60
2022/03/18 05:16:15;;;;;;;7.68;7.07;;;;;;;1.74;63.95;96655.00;5078724;28;20216;-60
2022/03/18 05:18:41;;;;;;;8.02;7.28;;;;;;;1.84;63.96;96649.66;5096565;28;20185;-58
2022/03/18 05:21:08;;;;;;;8.50;7.80;;;;;;;1.92;63.20;96653.81;5112834;28;20196;-57
2022/03/18 05:23:35;;;;;;;8.45;7.75;;;;;;;1.87;63.12;96654.59;5097073;28;20191;-58
2022/03/18 05:26:02;;;;;;;9.00;8.27;;;;;;;1.92;62.94;96656.53;5079388;28;20193;-60
2022/03/18 05:28:31;;;;;;;9.50;8.60;;;;;;;1.92;62.86;96656.53;5096574;28;20184;-60
2022/03/18 05:30:58;;;;;;;8.75;8.05;;;;;;;1.90;63.13;96664.16;5096327;28;20658;-60
2022/03/18 05:33:24;;;;;;;9.23;8.50;;;;;;;1.89;63.47;96662.50;5110744;28;20273;-60
2022/03/18 05:35:51;;;;;;;9.30;8.52;;;;;;;1.90;62.74;96662.25;5116572;28;20204;-60
2022/03/18 05:38:18;;;;;;;9.65;8.70;;;;;;;1.76;62.88;96661.03;5116905;28;20180;-59
2022/03/18 05:40:45;;;;;;;9.70;8.82;;;;;;;1.65;63.37;96656.56;5098906;28;20531;-59
2022/03/18 05:43:12;;;;;;;9.15;8.35;;;;;;;1.59;63.61;96666.56;5098723;28;20207;-59
2022/03/18 05:45:40;;;;;;;9.90;9.00;;;;;;;1.66;63.22;96669.91;5098858;28;20204;-60
2022/03/18 05:48:07;;;;;;;12.75;11.80;;;;;;;1.59;63.35;96671.19;5116606;28;20192;-59
2022/03/18 05:50:34;;;;;;;14.80;13.70;;;;;;;1.51;63.74;96672.47;5116280;28;20231;-60
2022/03/18 05:53:01;;;;;;;13.70;12.60;;;;;;;1.51;63.60;96668.94;5098316;28;20203;-59
2022/03/18 05:56:52;;;;;;;11.25;10.45;;;;;;;1.36;63.66;96673.13;5098176;28;20207;-60
2022/03/18 05:58:16;;;;;;;10.05;9.25;;;;;;;1.33;63.58;96681.78;5116361;28;20207;-60
2022/03/18 06:00:44;;;;;;;12.93;11.93;;;;;;;1.32;64.13;96677.44;5116395;28;20192;-60
2022/03/18 06:03:12;;;;;;;9.25;8.45;;;;;;;1.18;64.05;96679.72;5098975;28;20207;-60
2022/03/18 06:05:39;;;;;;;9.60;8.77;;;;;;;1.18;63.59;96681.63;5116078;28;20688;-61
2022/03/18 06:13:31;;;;;;;12.57;11.63;;;;;;;1.31;63.32;96694.03;5096759;28;20433;-62
2022/03/18 06:15:59;;;;;;;12.90;11.93;;;;;;;1.29;63.49;96696.16;5097957;28;20221;-61
2022/03/18 06:18:26;;;;;;;9.77;9.07;;;;;;;1.44;63.32;96707.19;5116127;28;20184;-61
2022/03/18 06:20:53;;;;;;;7.20;6.50;;;;;;;1.48;61.50;96712.94;5115843;28;20210;-61
2022/03/18 06:23:20;;;;;;;7.47;6.80;;;;;;;1.40;61.56;96716.94;5098461;28;20213;-62
2022/03/18 06:25:46;;;;;;;7.32;6.63;;;;;;;1.50;61.35;96713.53;5098046;28;20602;-61
2022/03/18 06:28:13;;;;;;;8.32;7.70;;;;;;;1.52;61.26;96716.81;5098108;28;20192;-61
2022/03/18 06:30:40;;;;;;;7.88;7.07;;;;;;;1.43;61.65;96722.69;5115969;28;20192;-62
2022/03/18 06:33:08;;;;;;;10.10;9.10;;;;;;;1.28;63.31;96725.25;5115967;28;20187;-61
2022/03/18 06:35:35;;;;;;;11.25;10.20;;;;;;;1.33;63.29;96747.03;5115945;28;20231;-60
2022/03/18 06:38:02;;;;;;;7.97;7.38;;;;;;;1.36;62.99;96746.53;5115939;28;20216;-62
2022/03/18 06:40:28;;;;;;;8.40;7.70;;;;;;;1.39;62.86;96734.34;5097909;28;20203;-62
2022/03/18 06:42:56;;;;;;;9.05;8.20;;;;;;;1.40;63.50;96741.41;5098253;28;20188;-63
2022/03/18 06:45:24;;;;;;;8.80;8.10;;;;;;;1.41;62.83;96746.59;5098287;28;20192;-63
2022/03/18 06:47:51;;;;;;;7.93;7.32;;;;;;;1.50;62.72;96746.16;5115728;28;20194;-63
2022/03/18 06:50:20;;;;;;;8.10;7.30;;;;;;;1.44;62.11;96748.81;5094173;28;20232;-63
2022/03/18 06:52:47;;;;;;;8.82;8.02;;;;;;;1.48;62.25;96767.34;5095590;28;20518;-63
2022/03/18 06:55:14;;;;;;;7.65;7.05;;;;;;;1.32;61.80;96766.34;5094407;28;20197;-63
2022/03/18 06:57:42;;;;;;;7.70;6.90;;;;;;;1.22;62.42;96764.31;5094346;28;20203;-63
2022/03/18 07:00:10;;;;;;;7.38;6.78;;;;;;;1.21;61.74;96768.09;5095275;28;20258;-62
2022/03/18 07:02:37;;;;;;;7.63;7.00;;;;;;;1.13;62.09;96758.50;5095223;28;20188;-62
2022/03/18 07:05:05;;;;;;;6.60;6.00;;;;;;;1.07;59.00;96766.81;5094318;28;20254;-62
2022/03/18 07:07:33;;;;;;;7.00;6.28;;;;;;;0.99;58.87;96775.41;5097015;28;20203;-63
2022/03/18 07:10:00;;;;;;;6.57;6.07;;;;;;;1.00;58.71;96780.59;5099073;28;20192;-63
2022/03/18 07:12:27;;;;;;;7.35;6.68;;;;;;;1.17;58.17;96775.94;5099208;28;20203;-61
2022/03/18 07:14:54;;;;;;;7.68;6.97;;;;;;;1.20;58.11;96775.44;5099494;28;20273;-62
2022/03/18 07:20:05;;;;;;;7.35;6.78;;;;;;;1.58;58.28;96775.63;5099477;28;20177;-60
2022/03/18 07:22:33;;;;;;;6.95;6.43;;;;;;;1.58;58.62;96768.28;5098985;28;20196;-61
2022/03/18 07:25:00;;;;;;;8.40;7.60;;;;;;;1.65;58.31;96773.53;5098358;28;20549;-61
2022/03/18 07:27:27;;;;;;;7.75;6.90;;;;;;;1.52;58.36;96782.06;5098543;28;20192;-61
2022/03/18 07:29:54;;;;;;;6.95;6.30;;;;;;;1.39;58.00;96777.84;5098681;28;20185;-62
2022/03/18 07:32:21;;;;;;;8.18;7.47;;;;;;;1.50;57.87;96776.06;5098795;28;20196;-62
2022/03/18 07:34:47;;;;;;;6.85;6.25;;;;;;;1.56;54.93;96784.06;5098153;28;20200;-62
2022/03/18 07:37:14;;;;;;;6.57;6.07;;;;;;;1.41;53.49;96789.28;5097823;28;20541;-62
2022/03/18 07:39:42;;;;;;;7.07;6.38;;;;;;;1.65;53.39;96778.97;5098940;28;20230;-61
2022/03/18 07:42:09;;;;;;;8.50;6.90;;;;;;;1.79;53.84;96782.94;5098708;28;20199;-61
2022/03/18 07:44:36;;;;;;;6.35;5.85;;;;;;;1.93;54.54;96786.91;5098349;28;20597;-62
2022/03/18 07:47:03;;;;;;;6.30;5.70;;;;;;;2.15;55.32;96795.03;5098957;28;20280;-62
2022/03/18 07:49:30;;;;;;;6.90;6.32;;;;;;;2.33;54.46;96793.84;5100065;28;20214;-63
2022/03/18 07:51:57;;;;;;;6.88;6.28;;;;;;;2.42;52.45;96792.25;5101272;28;20210;-63
2022/03/18 07:54:24;;;;;;;6.60;6.05;;;;;;;2.49;52.96;96788.50;5118577;28;20266;-63
2022/03/18 07:56:52;;;;;;;5.95;5.55;;;;;;;2.37;51.36;96792.22;5100907;28;20203;-63
2022/03/18 07:59:19;;;;;;;5.80;5.40;;;;;;;2.49;51.98;96800.22;5100627;28;20604;-59
2022/03/18 08:01:46;;;;;;;6.70;6.10;;;;;;;2.53;50.36;96804.06;5118509;28;20191;-62
2022/03/18 08:04:13;;;;;;;6.40;5.72;;;;;;;2.67;51.27;96804.47;5100930;28;20202;-62
2022/03/18 08:06:40;;;;;;;6.80;6.20;;;;;;;2.85;51.96;96804.06;5100678;28;20298;-63
2022/03/18 08:09:07;;;;;;;6.90;6.30;;;;;;;3.04;53.19;96800.91;5118381;28;20184;-62
2022/03/18 08:11:34;;;;;;;12.10;7.13;;;;;;;2.76;50.47;96802.06;5118344;28;20191;-61
2022/03/18 08:14:03;;;;;;;8.98;7.40;;;;;;;2.68;50.11;96808.81;5100871;28;20253;-61
2022/03/18 08:16:29;;;;;;;10.68;6.72;;;;;;;2.62;49.37;96799.00;5100494;28;20222;-61
2022/03/18 08:18:57;;;;;;;7.40;6.78;;;;;;;2.60;51.70;96796.50;5117695;28;20191;-62
2022/03/18 08:21:24;;;;;;;9.02;8.18;;;;;;;2.65;51.21;96799.28;5118310;28;20187;-62
2022/03/18 08:23:50;;;;;;;8.98;6.30;;;;;;;2.83;50.27;96798.06;5118441;28;20196;-62
2022/03/18 08:26:17;;;;;;;6.47;5.97;;;;;;;3.13;51.46;96796.63;5118363;28;20187;-60
2022/03/18 08:28:44;;;;;;;8.63;6.60;;;;;;;3.32;49.62;96802.44;5118417;28;20187;-63
2022/03/18 08:31:12;;;;;;;7.78;7.07;;;;;;;3.45;48.85;96803.88;5100368;28;20195;-63
2022/03/18 08:33:39;;;;;;;7.35;6.85;;;;;;;3.56;47.95;96795.50;5100536;28;20302;-62
2022/03/18 08:36:06;;;;;;;7.47;6.88;;;;;;;3.57;48.02;96790.84;5100512;28;20677;-62
2022/03/18 08:38:33;;;;;;;6.93;6.25;;;;;;;3.54;46.59;96792.19;5118134;28;20215;-62
2022/03/18 08:41:00;;;;;;;6.63;6.00;;;;;;;3.26;45.73;96796.13;5117990;28;20184;-63
2022/03/18 08:43:26;;;;;;;8.02;7.28;;;;;;;3.43;45.56;96790.50;5118187;28;20203;-63
2022/03/18 08:45:53;;;;;;;7.40;6.80;;;;;;;3.30;46.85;96797.25;5100111;28;20242;-63
2022/03/18 08:48:21;;;;;;;7.72;6.97;;;;;;;3.35;46.97;96788.28;5118052;28;20208;-63
2022/03/18 08:50:48;;;;;;;7.38;6.70;;;;;;;3.31;49.46;96782.53;5117892;28;20246;-62
2022/03/18 08:53:15;;;;;;;6.97;6.38;;;;;;;3.50;48.94;96785.63;5117514;28;20209;-62
2022/03/18 08:55:42;;;;;;;7.60;6.90;;;;;;;3.75;47.30;96793.09;5100009;28;20196;-63
2022/03/18 08:58:09;;;;;;;6.70;6.10;;;;;;;4.01;47.98;96785.81;5099885;28;20215;-63
2022/03/18 09:00:36;;;;;;;7.03;6.32;;;;;;;4.18;44.80;96784.75;5117617;28;20188;-62
2022/03/18 09:03:02;;;;;;;7.22;6.55;;;;;;;4.44;45.09;96782.88;5117346;28;20194;-62
2022/03/18 09:05:31;;;;;;;7.20;6.50;;;;;;;4.65;46.22;96780.97;5099441;28;20203;-62
2022/03/18 09:07:58;;;;;;;7.00;6.30;;;;;;;4.78;45.01;96780.41;5117557;28;20191;-62
2022/03/18 09:10:25;;;;;;;6.38;5.88;;;;;;;4.78;42.61;96789.44;5099648;28;20207;-63
2022/03/18 09:12:58;;;;;;;7.47;6.18;;;;;;;4.74;42.79;96782.88;5117454;28;20188;-63
2022/03/18 09:15:25;;;;;;;6.65;6.05;;;;;;;4.69;43.64;96782.09;5117461;28;20200;-63
2022/03/18 09:17:51;;;;;;;7.43;6.82;;;;;;;4.87;43.78;96784.25;5117204;28;20211;-63
2022/03/18 09:20:18;;;;;;;7.43;6.82;;;;;;;4.75;42.39;96800.91;5117046;28;20176;-63
2022/03/18 09:22:46;;;;;;;7.30;6.70;;;;;;;4.69;42.90;96793.81;5117370;28;20186;-63
2022/03/18 09:25:14;;;;;;;6.78;6.18;;;;;;;4.79;43.00;96793.84;5099157;28;20210;-63
2022/03/18 09:27:41;;;;;;;7.13;6.53;;;;;;;4.84;42.65;96793.00;5099287;28;20237;-63
2022/03/18 09:30:09;;;;;;;6.55;6.05;;;;;;;4.85;43.12;96791.09;5116035;28;20184;-63
2022/03/18 09:32:36;;;;;;;8.60;7.32;;;;;;;4.73;41.65;96796.84;5117057;28;20202;-63
2022/03/18 09:35:04;;;;;;;6.95;6.32;;;;;;;4.78;41.79;96791.34;5117016;28;20191;-63
2022/03/18 09:37:31;;;;;;;7.60;6.90;;;;;;;4.82;42.56;96795.19;5116897;28;20211;-63
2022/03/18 09:40:01;;;;;;;7.35;6.68;;;;;;;4.72;42.18;96786.97;5099111;28;20219;-63
2022/03/18 09:42:28;;;;;;;8.02;7.35;;;;;;;4.67;43.09;96784.25;5117046;28;20183;-63
2022/03/18 09:44:54;;;;;;;6.55;5.95;;;;;;;4.49;41.95;96780.16;5098589;28;20192;-63
2022/03/18 09:47:22;;;;;;;7.45;6.85;;;;;;;4.18;41.88;96795.69;5116695;28;20202;-63
2022/03/18 09:49:49;;;;;;;7.32;6.72;;;;;;;4.26;42.41;96782.31;5094961;28;20236;-63
2022/03/18 09:52:16;;;;;;;7.30;6.70;;;;;;;4.24;42.13;96776.28;5095702;28;20204;-63
2022/03/18 09:54:43;;;;;;;6.47;5.97;;;;;;;4.31;41.77;96776.84;5096196;28;20233;-63
2022/03/18 09:57:11;;;;;;;8.02;7.32;;;;;;;4.45;42.41;96776.31;5095954;28;20204;-63
2022/03/18 09:59:38;;;;;;;7.38;6.78;;;;;;;4.45;41.66;96768.94;5095800;28;20180;-63
2022/03/18 10:02:25;;;;;;;8.38;7.53;;;;;;;4.25;41.63;96777.94;5094146;28;20430;-64
2022/03/18 10:04:53;;;;;;;8.68;7.78;;;;;;;4.09;42.54;96787.19;5096108;28;20188;-63
2022/03/18 10:07:21;;;;;;;8.18;7.47;;;;;;;4.14;42.28;96778.19;5095787;28;20189;-63
2022/03/18 10:09:48;;;;;;;8.18;7.38;;;;;;;4.21;42.32;96784.19;5095449;28;20291;-66
2022/03/18 10:12:32;;;;;;;7.75;7.20;;;;;;;4.09;42.64;96779.81;5095941;28;20537;-64
2022/03/18 10:15:09;;;;;;;9.75;8.85;;;;;;;4.24;44.85;96778.19;5094027;28;20207;-63
2022/03/18 10:17:44;;;;;;;10.63;9.73;;;;;;;4.26;44.80;96774.13;5095931;28;20235;-63
2022/03/18 10:20:25;;;;;;;9.48;8.77;;;;;;;3.85;44.89;96782.22;5096231;28;20181;-63
2022/03/18 10:22:53;;;;;;;9.80;8.90;;;;;;;3.66;45.32;96780.22;5094806;28;20200;-62
2022/03/18 10:25:40;;;;;;;9.68;8.85;;;;;;;3.32;46.46;96778.72;5094781;28;20211;-63
2022/03/18 10:28:11;;;;;;;11.05;10.05;;;;;;;3.51;46.58;96778.25;5095369;28;20203;-62
2022/03/18 10:30:38;;;;;;;11.82;10.65;;;;;;;3.63;46.18;96776.13;5096876;28;20616;-62
2022/03/18 10:33:06;;;;;;;10.43;9.52;;;;;;;3.82;46.07;96768.28;5095388;28;20188;-63
2022/03/18 10:38:30;;;;;;;10.32;9.38;;;;;;;3.68;44.57;96776.16;5095306;28;20283;-63
2022/03/18 10:40:58;;;;;;;9.38;8.50;;;;;;;3.60;45.63;96785.69;5094935;28;20244;-62
2022/03/18 10:43:26;;;;;;;9.05;8.27;;;;;;;3.50;45.27;96790.28;5094184;28;20195;-62
2022/03/18 10:46:01;;;;;;;9.07;8.30;;;;;;;3.73;45.27;96778.88;5095111;28;20193;-64
2022/03/18 10:48:27;;;;;;;13.52;12.13;;;;;;;4.14;45.54;96768.09;5096038;28;20184;-63
2022/03/18 10:51:02;;;;;;;14.43;13.18;;;;;;;4.23;45.41;96762.91;5109462;28;20285;-63
2022/03/18 10:53:31;;;;;;;11.48;10.45;;;;;;;4.03;43.99;96780.91;5116116;28;20262;-63
2022/03/18 10:56:02;;;;;;;14.55;13.35;;;;;;;3.61;43.18;96775.59;5097805;28;20196;-63
2022/03/18 10:58:32;;;;;;;15.15;13.93;;;;;;;3.67;42.61;96776.41;5115576;28;20257;-63
2022/03/18 11:01:01;;;;;;;13.82;12.63;;;;;;;3.68;42.04;96780.78;5115537;28;20328;-63
2022/03/18 11:03:29;;;;;;;8.55;7.85;;;;;;;3.81;42.19;96766.63;5097900;28;20217;-63
2022/03/18 11:05:58;;;;;;;10.20;9.25;;;;;;;4.00;42.25;96767.78;5097889;28;20223;-62
2022/03/18 11:08:31;;;;;;;8.38;7.65;;;;;;;4.31;40.72;96760.44;5097680;28;20330;-63
2022/03/18 11:11:18;;;;;;;10.52;9.52;;;;;;;4.63;39.85;96762.13;5097620;28;20219;-63
2022/03/18 11:13:51;;;;;;;8.77;8.07;;;;;;;5.10;40.26;96763.72;5115678;28;20184;-63
2022/03/18 11:16:19;;;;;;;8.65;7.85;;;;;;;5.53;40.84;96758.66;5097591;28;20200;-63
2022/03/18 11:18:48;;;;;;;10.65;9.65;;;;;;;6.02;39.48;96760.63;5097370;28;20219;-63
2022/03/18 11:21:16;;;;;;;8.95;8.23;;;;;;;6.32;38.11;96759.66;5115431;28;20180;-63
2022/03/18 11:23:45;;;;;;;11.27;10.10;;;;;;;6.48;37.64;96763.91;5115211;28;20180;-63
2022/03/18 11:26:14;;;;;;;8.15;7.53;;;;;;;6.13;35.10;96759.47;5098035;28;20207;-63
2022/03/18 11:28:41;;;;;;;8.35;7.65;;;;;;;5.80;35.76;96764.56;5115347;28;20357;-63
2022/03/18 11:31:10;;;;;;;8.48;7.78;;;;;;;6.15;36.95;96754.56;5115226;28;20187;-63
2022/03/18 11:33:38;;;;;;;8.68;7.97;;;;;;;6.54;36.68;96744.69;5097038;28;20289;-63
2022/03/18 11:36:13;;;;;;;7.75;7.05;;;;;;;6.94;36.46;96738.03;5115402;28;20195;-63
2022/03/18 11:39:06;;;;;;;7.38;6.68;;;;;;;7.76;35.51;96739.88;5115017;28;20530;-63
2022/03/18 11:41:47;;;;;;;7.35;6.75;;;;;;;7.79;33.50;96739.28;5097852;28;20191;-63
2022/03/18 11:44:41;;;;;;;7.63;6.93;;;;;;;7.18;34.02;96741.63;5115190;28;20191;-63
2022/03/18 11:47:45;;;;;;;8.27;7.53;;;;;;;6.83;34.05;96742.81;5097425;28;20196;-63
2022/03/18 11:50:43;;;;;;;9.75;6.68;;;;;;;6.79;33.55;96735.41;5097360;28;20231;-63
2022/03/18 11:53:13;;;;;;;7.60;6.30;;;;;;;6.61;34.56;96735.03;5097405;28;20206;-62
2022/03/18 11:55:40;;;;;;;6.13;5.68;;;;;;;6.83;34.81;96731.84;5101701;28;20502;-61
2022/03/18 11:58:29;;;;;;;7.90;7.20;;;;;;;7.46;35.12;96723.47;5118925;28;20211;-62
2022/03/18 12:00:56;;;;;;;7.78;7.18;;;;;;;7.68;36.17;96731.16;5118733;28;20196;-63
2022/03/18 12:03:29;;;;;;;6.68;6.07;;;;;;;7.78;34.83;96732.97;5100837;28;20203;-63
2022/03/18 12:05:58;;;;;;;7.15;6.50;;;;;;;7.84;33.72;96736.47;5119266;28;20195;-62